Time;durP1;ratioP1;P1;durP2;ratioP2;P2;SDS_P1;SDS_P2;PMS_P1;PMS_P2;Temp;Humidity;BMP_temperature;BMP_pressure;BME280_temperature;BME280_humidity;BME280_pressure;Samples;Min_cycle;Max_cycle;Signal;HPM_P1;HPM_P2
2022/06/07 00:00:09;;;;;;;18.75;9.10;;;;;;;;;;1701781;84;21054;-78
2022/06/07 00:02:35;;;;;;;16.15;9.08;;;;;;;;;;1688234;84;20985;-78
2022/06/07 00:05:04;;;;;;;16.95;9.13;;;;;;;;;;1711908;83;21020;-79
2022/06/07 00:07:31;;;;;;;14.93;8.80;;;;;;;;;;1726716;83;21050;-79
2022/06/07 00:09:59;;;;;;;14.87;8.58;;;;;;;;;;1731003;82;22135;-79
2022/06/07 00:12:25;;;;;;;14.63;9.03;;;;;;;;;;1695318;84;21028;-79
2022/06/07 00:14:51;;;;;;;15.83;8.20;;;;;;;;;;1694550;84;21047;-79
2022/06/07 00:17:17;;;;;;;16.45;8.60;;;;;;;;;;1694738;84;21048;-79
2022/06/07 00:19:44;;;;;;;16.60;8.30;;;;;;;;;;1693563;84;21563;-78
2022/06/07 00:22:10;;;;;;;14.30;8.58;;;;;;;;;;1696372;84;21070;-79
2022/06/07 00:24:36;;;;;;;16.17;8.63;;;;;;;;;;1694844;84;21052;-79
2022/06/07 00:27:02;;;;;;;19.27;8.70;;;;;;;;;;1694151;84;21072;-78
2022/06/07 00:29:28;;;;;;;14.95;7.50;;;;;;;;;;1695884;84;21013;-78
2022/06/07 00:31:55;;;;;;;12.98;7.75;;;;;;;;;;1693949;84;21088;-79
2022/06/07 00:34:22;;;;;;;15.93;7.97;;;;;;;;;;1694733;84;21090;-77
2022/06/07 00:36:48;;;;;;;16.05;9.00;;;;;;;;;;1697853;84;21109;-77
2022/06/07 00:39:14;;;;;;;14.25;8.28;;;;;;;;;;1698767;84;21531;-77
2022/06/07 00:41:40;;;;;;;17.25;8.43;;;;;;;;;;1699330;84;21028;-78
2022/06/07 00:44:23;;;;;;;14.85;8.10;;;;;;;;;;1697587;84;21064;-78
2022/06/07 00:46:50;;;;;;;16.52;8.85;;;;;;;;;;1696358;84;21050;-78
2022/06/07 00:49:16;;;;;;;13.75;7.75;;;;;;;;;;1692387;84;21513;-78
2022/06/07 00:51:44;;;;;;;13.35;8.05;;;;;;;;;;1692059;84;20994;-79
2022/06/07 00:54:12;;;;;;;13.93;8.33;;;;;;;;;;1691692;84;21043;-77
2022/06/07 00:56:40;;;;;;;14.25;7.80;;;;;;;;;;1690890;84;21187;-78
2022/06/07 00:59:06;;;;;;;16.15;8.63;;;;;;;;;;1696439;84;21050;-78
2022/06/07 01:04:23;;;;;;;15.18;8.65;;;;;;;;;;1711540;80;21112;-75
2022/06/07 01:12:21;;;;;;;17.20;9.00;;;;;;;;;;1725655;81;21058;-75
2022/06/07 01:14:48;;;;;;;16.40;8.35;;;;;;;;;;1747566;82;21580;-75
2022/06/07 01:17:15;;;;;;;15.20;7.72;;;;;;;;;;1749317;81;20995;-75
2022/06/07 01:19:43;;;;;;;15.25;9.08;;;;;;;;;;1758496;81;21050;-75
2022/06/07 01:22:10;;;;;;;19.15;9.20;;;;;;;;;;1752174;81;21018;-75
2022/06/07 01:24:36;;;;;;;17.23;8.40;;;;;;;;;;1758110;81;21513;-74
2022/06/07 01:27:04;;;;;;;15.60;8.08;;;;;;;;;;1780550;80;21072;-74
2022/06/07 01:29:31;;;;;;;20.23;9.45;;;;;;;;;;1751539;81;21149;-75
2022/06/07 01:31:58;;;;;;;19.17;10.65;;;;;;;;;;1741655;81;21073;-74
2022/06/07 01:34:26;;;;;;;17.87;9.78;;;;;;;;;;1743716;81;21163;-74
2022/06/07 01:36:56;;;;;;;16.97;8.25;;;;;;;;;;1744470;81;21493;-74
2022/06/07 01:42:08;;;;;;;15.35;8.00;;;;;;;;;;1743708;81;21536;-74
2022/06/07 01:44:37;;;;;;;15.80;9.08;;;;;;;;;;1728170;83;21033;-75
2022/06/07 01:47:03;;;;;;;17.35;8.63;;;;;;;;;;1742966;82;20981;-75
2022/06/07 01:49:32;;;;;;;15.70;8.10;;;;;;;;;;1747236;82;21041;-74
2022/06/07 01:51:59;;;;;;;14.95;8.75;;;;;;;;;;1745775;81;21042;-75
2022/06/07 01:54:26;;;;;;;17.48;8.53;;;;;;;;;;1735388;81;21043;-74
2022/06/07 01:56:53;;;;;;;14.55;8.53;;;;;;;;;;1724153;83;21556;-73
2022/06/07 01:59:19;;;;;;;16.27;8.20;;;;;;;;;;1770540;80;21017;-75
2022/06/07 02:01:47;;;;;;;16.32;8.70;;;;;;;;;;1760800;81;21010;-75
2022/06/07 02:04:13;;;;;;;16.48;7.92;;;;;;;;;;1760926;81;21603;-75
2022/06/07 02:06:40;;;;;;;15.50;9.08;;;;;;;;;;1748137;81;21398;-75
2022/06/07 02:09:07;;;;;;;16.20;8.63;;;;;;;;;;1743336;81;21003;-73
2022/06/07 02:11:33;;;;;;;15.98;8.18;;;;;;;;;;1755285;81;21034;-72
2022/06/07 02:14:02;;;;;;;18.25;10.10;;;;;;;;;;1752345;81;21061;-73
2022/06/07 02:16:28;;;;;;;19.02;9.05;;;;;;;;;;1760994;81;21057;-74
2022/06/07 02:18:55;;;;;;;18.42;8.93;;;;;;;;;;1745398;81;21499;-74
2022/06/07 02:21:27;;;;;;;17.73;8.63;;;;;;;;;;1743502;81;21094;-74
2022/06/07 02:23:54;;;;;;;16.02;7.90;;;;;;;;;;1744263;81;21085;-74
2022/06/07 02:26:24;;;;;;;15.25;8.70;;;;;;;;;;1752073;81;21026;-74
2022/06/07 02:28:52;;;;;;;15.23;8.58;;;;;;;;;;1753745;81;21042;-74
2022/06/07 02:31:18;;;;;;;16.87;9.05;;;;;;;;;;1723796;82;21034;-74
2022/06/07 02:33:44;;;;;;;14.90;8.93;;;;;;;;;;1738367;82;22112;-74
2022/06/07 02:36:11;;;;;;;15.90;8.60;;;;;;;;;;1733633;82;21058;-74
2022/06/07 02:38:38;;;;;;;18.45;9.40;;;;;;;;;;1747216;81;21062;-75
2022/06/07 02:41:05;;;;;;;19.17;8.88;;;;;;;;;;1743688;82;21602;-74
2022/06/07 02:43:31;;;;;;;14.98;7.90;;;;;;;;;;1754813;81;20982;-75
2022/06/07 02:45:58;;;;;;;15.13;8.70;;;;;;;;;;1761009;81;21494;-74
2022/06/07 02:48:25;;;;;;;15.28;7.87;;;;;;;;;;1745003;81;21073;-74
2022/06/07 02:50:54;;;;;;;14.58;7.97;;;;;;;;;;1748994;81;21104;-74
2022/06/07 02:53:20;;;;;;;15.80;9.68;;;;;;;;;;1756105;81;21006;-74
2022/06/07 02:55:48;;;;;;;16.32;8.95;;;;;;;;;;1764959;81;20989;-73
2022/06/07 02:58:21;;;;;;;15.72;8.48;;;;;;;;;;1745530;81;21024;-74
2022/06/07 03:00:48;;;;;;;17.17;9.63;;;;;;;;;;1735848;82;21031;-74
2022/06/07 03:03:15;;;;;;;17.75;8.90;;;;;;;;;;1735862;83;21653;-73
2022/06/07 03:05:43;;;;;;;16.82;9.65;;;;;;;;;;1754193;81;21082;-73
2022/06/07 03:08:12;;;;;;;16.87;9.43;;;;;;;;;;1767102;81;21565;-74
2022/06/07 03:10:39;;;;;;;13.22;8.65;;;;;;;;;;1756937;81;21046;-74
2022/06/07 03:13:06;;;;;;;13.65;7.85;;;;;;;;;;1757177;81;21477;-74
2022/06/07 03:15:32;;;;;;;15.48;8.15;;;;;;;;;;1756008;81;21025;-73
2022/06/07 03:18:00;;;;;;;13.10;8.18;;;;;;;;;;1769705;81;21017;-74
2022/06/07 03:20:37;;;;;;;14.43;8.33;;;;;;;;;;1756949;81;21537;-74
2022/06/07 03:23:04;;;;;;;15.35;7.85;;;;;;;;;;1759214;81;21033;-74
2022/06/07 03:25:30;;;;;;;12.15;7.70;;;;;;;;;;1763894;81;21322;-74
2022/06/07 03:28:00;;;;;;;13.25;7.72;;;;;;;;;;1757366;81;21046;-73
2022/06/07 03:30:27;;;;;;;14.10;7.33;;;;;;;;;;1755807;81;21430;-73
2022/06/07 03:32:53;;;;;;;14.33;7.40;;;;;;;;;;1732010;82;21022;-73
2022/06/07 03:35:20;;;;;;;13.25;8.55;;;;;;;;;;1767532;81;21049;-73
2022/06/07 03:37:46;;;;;;;9.90;7.08;;;;;;;;;;1752169;81;21033;-74
2022/06/07 03:40:14;;;;;;;11.40;7.12;;;;;;;;;;1770165;81;20994;-74
2022/06/07 03:42:41;;;;;;;10.95;7.33;;;;;;;;;;1755771;81;21066;-75
2022/06/07 03:45:08;;;;;;;15.32;7.65;;;;;;;;;;1756580;81;21034;-75
2022/06/07 03:47:37;;;;;;;9.88;7.58;;;;;;;;;;1731564;82;21022;-75
2022/06/07 03:50:05;;;;;;;70.78;11.25;;;;;;;;;;1767287;81;21595;-74
2022/06/07 03:52:32;;;;;;;30.00;8.00;;;;;;;;;;1772855;81;20969;-75
2022/06/07 03:54:58;;;;;;;13.30;6.90;;;;;;;;;;1763977;81;21029;-74
2022/06/07 03:57:26;;;;;;;7.45;4.83;;;;;;;;;;1761044;81;21482;-74
2022/06/07 03:59:55;;;;;;;7.47;5.17;;;;;;;;;;1772516;80;21349;-75
2022/06/07 04:02:21;;;;;;;6.05;4.28;;;;;;;;;;1772778;81;21025;-73
2022/06/07 04:04:47;;;;;;;8.00;4.40;;;;;;;;;;1759004;81;21456;-73
2022/06/07 04:10:02;;;;;;;5.10;3.15;;;;;;;;;;1743673;82;21005;-73
2022/06/07 04:12:30;;;;;;;3.85;2.80;;;;;;;;;;1761286;81;21036;-73
2022/06/07 04:14:57;;;;;;;8.60;3.17;;;;;;;;;;1800218;80;21019;-73
2022/06/07 04:17:24;;;;;;;7.80;3.15;;;;;;;;;;1804115;78;20997;-74
2022/06/07 04:19:53;;;;;;;7.85;2.92;;;;;;;;;;1789444;78;21583;-74
2022/06/07 04:22:20;;;;;;;4.58;2.50;;;;;;;;;;1767249;81;21035;-74
2022/06/07 04:24:49;;;;;;;3.33;2.15;;;;;;;;;;1810117;78;21103;-73
2022/06/07 04:27:17;;;;;;;3.08;2.30;;;;;;;;;;1825333;78;21492;-74
2022/06/07 04:29:44;;;;;;;4.00;2.37;;;;;;;;;;1824794;78;21063;-75
2022/06/07 04:32:12;;;;;;;2.60;2.17;;;;;;;;;;1825309;78;21036;-75
2022/06/07 04:34:39;;;;;;;3.87;2.40;;;;;;;;;;1816494;78;21060;-73
2022/06/07 04:37:07;;;;;;;2.60;2.17;;;;;;;;;;1802604;78;20924;-73
2022/06/07 04:39:33;;;;;;;3.67;2.00;;;;;;;;;;1821731;78;21016;-73
2022/06/07 04:42:02;;;;;;;4.22;2.10;;;;;;;;;;1828291;78;21071;-73
2022/06/07 04:44:31;;;;;;;3.45;2.17;;;;;;;;;;1812201;78;21536;-73
2022/06/07 04:46:58;;;;;;;4.58;2.10;;;;;;;;;;1826288;78;21594;-74
2022/06/07 04:49:26;;;;;;;2.72;2.40;;;;;;;;;;1828079;78;21055;-74
2022/06/07 04:51:53;;;;;;;7.00;3.08;;;;;;;;;;1828339;78;20980;-75
2022/06/07 04:54:24;;;;;;;2.97;2.07;;;;;;;;;;1827697;78;21086;-74
2022/06/07 04:56:53;;;;;;;5.85;2.58;;;;;;;;;;1806405;78;21562;-74
2022/06/07 04:59:19;;;;;;;4.15;2.40;;;;;;;;;;1800607;80;21537;-72
2022/06/07 05:01:50;;;;;;;4.50;2.30;;;;;;;;;;1798391;80;21057;-73
2022/06/07 05:04:18;;;;;;;5.45;2.15;;;;;;;;;;1812288;78;21087;-72
2022/06/07 05:06:46;;;;;;;6.55;1.95;;;;;;;;;;1787110;80;21040;-72
2022/06/07 05:09:22;;;;;;;5.70;2.20;;;;;;;;;;1766530;80;21119;-73
2022/06/07 05:11:50;;;;;;;2.25;1.92;;;;;;;;;;1783985;80;21516;-73
2022/06/07 05:14:19;;;;;;;3.55;2.00;;;;;;;;;;1787137;79;21005;-73
2022/06/07 05:16:45;;;;;;;6.17;2.40;;;;;;;;;;1786710;79;21076;-73
2022/06/07 05:19:13;;;;;;;2.35;2.10;;;;;;;;;;1747587;81;20952;-73
2022/06/07 05:21:41;;;;;;;8.43;2.25;;;;;;;;;;1745497;82;20972;-74
2022/06/07 05:24:08;;;;;;;3.45;2.20;;;;;;;;;;1745877;82;21020;-73
2022/06/07 05:26:45;;;;;;;3.22;2.15;;;;;;;;;;1745817;81;21543;-74
2022/06/07 05:29:21;;;;;;;2.55;2.00;;;;;;;;;;1750070;81;21544;-72
2022/06/07 05:31:47;;;;;;;2.83;1.80;;;;;;;;;;1776497;81;20997;-73
2022/06/07 05:34:13;;;;;;;2.70;2.15;;;;;;;;;;1776415;81;21475;-74
2022/06/07 05:36:42;;;;;;;2.35;1.85;;;;;;;;;;1776088;81;21052;-73
2022/06/07 05:39:21;;;;;;;5.22;2.30;;;;;;;;;;1776546;81;20999;-74
2022/06/07 05:41:49;;;;;;;2.87;1.90;;;;;;;;;;1776266;81;21111;-73
2022/06/07 05:44:18;;;;;;;3.67;1.98;;;;;;;;;;1776307;81;21024;-73
2022/06/07 05:46:44;;;;;;;4.10;2.10;;;;;;;;;;1737120;82;21587;-73
2022/06/07 05:49:12;;;;;;;2.08;1.80;;;;;;;;;;1776213;80;21028;-72
2022/06/07 05:51:40;;;;;;;2.70;2.00;;;;;;;;;;1778269;80;21025;-72
2022/06/07 05:54:07;;;;;;;3.72;2.10;;;;;;;;;;1787161;80;21039;-72
2022/06/07 05:56:33;;;;;;;4.10;2.00;;;;;;;;;;1786917;79;21060;-73
2022/06/07 05:59:00;;;;;;;2.58;2.00;;;;;;;;;;1782235;80;21038;-72
2022/06/07 06:01:27;;;;;;;4.67;2.20;;;;;;;;;;1776458;81;21034;-72
2022/06/07 06:03:55;;;;;;;3.02;2.05;;;;;;;;;;1776353;81;21132;-72
2022/06/07 06:06:22;;;;;;;2.62;1.80;;;;;;;;;;1775764;80;21039;-73
2022/06/07 06:11:37;;;;;;;3.10;2.10;;;;;;;;;;1775821;81;21568;-73
2022/06/07 06:14:10;;;;;;;3.22;2.25;;;;;;;;;;1775828;81;21621;-73
2022/06/07 06:16:37;;;;;;;2.92;2.05;;;;;;;;;;1756461;80;21033;-73
2022/06/07 06:19:06;;;;;;;10.63;2.52;;;;;;;;;;1783926;80;21091;-73
2022/06/07 06:21:36;;;;;;;2.70;2.10;;;;;;;;;;1778576;80;21569;-73
2022/06/07 06:24:02;;;;;;;3.20;2.15;;;;;;;;;;1747650;81;21080;-73
2022/06/07 06:26:28;;;;;;;2.70;2.10;;;;;;;;;;1775965;80;21054;-73
2022/06/07 06:28:55;;;;;;;2.85;2.55;;;;;;;;;;1776438;80;20995;-73
2022/06/07 06:31:22;;;;;;;3.08;2.20;;;;;;;;;;1783268;80;21060;-75
2022/06/07 06:33:51;;;;;;;3.70;2.20;;;;;;;;;;1783654;80;21052;-73
2022/06/07 06:36:20;;;;;;;5.90;1.87;;;;;;;;;;1783140;80;20973;-74
2022/06/07 06:38:48;;;;;;;4.05;1.92;;;;;;;;;;1710789;82;21013;-74
2022/06/07 06:41:19;;;;;;;3.67;1.92;;;;;;;;;;1745081;82;21039;-73
2022/06/07 06:43:46;;;;;;;2.90;1.95;;;;;;;;;;1770534;80;21025;-74
2022/06/07 06:46:15;;;;;;;6.30;2.20;;;;;;;;;;1738320;82;21610;-73
2022/06/07 06:48:43;;;;;;;5.15;1.90;;;;;;;;;;1717629;83;21557;-73
2022/06/07 06:51:11;;;;;;;1.72;1.62;;;;;;;;;;1681576;84;21013;-74
2022/06/07 06:53:38;;;;;;;2.40;1.70;;;;;;;;;;1705535;83;21551;-74
2022/06/07 06:56:06;;;;;;;3.85;1.80;;;;;;;;;;1726199;83;22181;-74
2022/06/07 06:58:33;;;;;;;2.47;1.77;;;;;;;;;;1726592;83;21006;-74
2022/06/07 07:01:01;;;;;;;50.80;5.45;;;;;;;;;;1726922;82;21005;-74
2022/06/07 07:03:28;;;;;;;7.17;2.15;;;;;;;;;;1680073;84;21112;-76
2022/06/07 07:05:56;;;;;;;2.67;1.70;;;;;;;;;;1695513;82;21010;-76
2022/06/07 07:08:24;;;;;;;11.33;2.52;;;;;;;;;;1762746;81;21078;-76
2022/06/07 07:10:52;;;;;;;2.08;1.70;;;;;;;;;;1763547;81;21003;-82
2022/06/07 07:13:20;;;;;;;5.00;1.80;;;;;;;;;;1760287;81;21035;-81
2022/06/07 07:15:47;;;;;;;5.42;1.85;;;;;;;;;;1757146;82;21054;-82
2022/06/07 07:18:14;;;;;;;2.25;1.85;;;;;;;;;;1757442;82;21031;-83
2022/06/07 07:20:42;;;;;;;1.72;1.62;;;;;;;;;;1757301;81;20999;-81
2022/06/07 07:23:09;;;;;;;3.22;1.92;;;;;;;;;;1757625;82;20997;-82
2022/06/07 07:25:36;;;;;;;7.42;2.20;;;;;;;;;;1757631;82;21475;-83
2022/06/07 07:28:03;;;;;;;2.70;1.95;;;;;;;;;;1757687;82;21015;-83
2022/06/07 07:30:31;;;;;;;3.30;2.30;;;;;;;;;;1757469;82;21043;-82
2022/06/07 07:32:57;;;;;;;4.30;2.10;;;;;;;;;;1757766;82;21471;-81
2022/06/07 07:35:24;;;;;;;2.00;1.80;;;;;;;;;;1757397;82;21019;-81
2022/06/07 07:38:02;;;;;;;3.80;1.80;;;;;;;;;;1757743;82;21498;-82
2022/06/07 07:40:28;;;;;;;2.45;2.00;;;;;;;;;;1757677;82;21126;-81
2022/06/07 07:42:57;;;;;;;3.47;1.95;;;;;;;;;;1757709;82;21059;-81
2022/06/07 07:45:26;;;;;;;3.40;1.87;;;;;;;;;;1757200;81;21032;-81
2022/06/07 07:47:55;;;;;;;14.30;3.33;;;;;;;;;;1757799;82;21594;-81
2022/06/07 07:50:21;;;;;;;1.72;1.60;;;;;;;;;;1757796;82;21031;-81
2022/06/07 07:52:50;;;;;;;10.75;2.67;;;;;;;;;;1757733;82;21099;-81
2022/06/07 07:55:16;;;;;;;4.00;2.22;;;;;;;;;;1757859;82;21066;-81
2022/06/07 07:57:44;;;;;;;2.05;1.67;;;;;;;;;;1757880;82;21071;-81
2022/06/07 08:00:14;;;;;;;2.65;2.00;;;;;;;;;;1757789;82;21067;-81
2022/06/07 08:02:42;;;;;;;2.50;1.77;;;;;;;;;;1757845;81;21603;-82
2022/06/07 08:05:10;;;;;;;2.17;1.90;;;;;;;;;;1756234;81;21011;-80
2022/06/07 08:07:37;;;;;;;4.05;2.08;;;;;;;;;;1757907;82;21198;-81
2022/06/07 08:10:04;;;;;;;5.92;2.12;;;;;;;;;;1757536;82;21008;-81
2022/06/07 08:12:31;;;;;;;23.45;4.15;;;;;;;;;;1757729;82;20999;-80
2022/06/07 08:14:59;;;;;;;2.47;1.95;;;;;;;;;;1757562;82;21066;-80
2022/06/07 08:17:28;;;;;;;2.58;1.90;;;;;;;;;;1757875;82;21024;-81
2022/06/07 08:21:30;;;;;;;2.90;2.00;;;;;;;;;;1819787;79;24060;-81
2022/06/07 08:23:57;;;;;;;2.40;2.10;;;;;;;;;;1793227;80;21016;-80
2022/06/07 08:26:26;;;;;;;4.10;2.30;;;;;;;;;;1792807;80;21093;-80
2022/06/07 08:28:52;;;;;;;3.22;2.10;;;;;;;;;;1793440;80;21011;-80
2022/06/07 08:31:20;;;;;;;2.22;2.02;;;;;;;;;;1793256;80;21016;-82
2022/06/07 08:39:16;;;;;;;2.72;2.22;;;;;;;;;;1793654;80;21020;-81
2022/06/07 08:41:47;;;;;;;2.33;2.10;;;;;;;;;;1793325;80;21102;-80
2022/06/07 08:44:15;;;;;;;3.35;2.00;;;;;;;;;;1793324;80;21063;-80
2022/06/07 08:46:42;;;;;;;2.77;1.80;;;;;;;;;;1793192;80;21103;-81
2022/06/07 08:49:09;;;;;;;33.98;4.25;;;;;;;;;;1793127;80;21016;-81
2022/06/07 08:51:37;;;;;;;3.70;2.05;;;;;;;;;;1793571;80;20989;-80
2022/06/07 08:54:06;;;;;;;2.65;2.15;;;;;;;;;;1793017;80;21072;-79
2022/06/07 08:56:33;;;;;;;11.45;2.85;;;;;;;;;;1792471;80;21590;-79
2022/06/07 08:59:01;;;;;;;3.15;2.20;;;;;;;;;;1793050;80;21090;-79
2022/06/07 09:01:35;;;;;;;2.37;2.15;;;;;;;;;;1793385;80;21044;-78
2022/06/07 09:04:03;;;;;;;4.35;2.10;;;;;;;;;;1791889;79;21615;-79
2022/06/07 09:06:31;;;;;;;4.15;2.65;;;;;;;;;;1793233;80;20993;-79
2022/06/07 09:08:57;;;;;;;5.00;2.30;;;;;;;;;;1793425;80;21047;-80
2022/06/07 09:14:18;;;;;;;4.25;2.22;;;;;;;;;;1793629;80;21032;-80
2022/06/07 09:16:46;;;;;;;3.05;2.10;;;;;;;;;;1793510;80;20997;-82
2022/06/07 09:19:14;;;;;;;6.42;2.58;;;;;;;;;;1793567;80;21008;-81
2022/06/07 09:21:42;;;;;;;2.42;2.10;;;;;;;;;;1787836;80;21060;-81
2022/06/07 09:24:27;;;;;;;2.90;2.15;;;;;;;;;;1788139;80;21001;-81
2022/06/07 09:26:55;;;;;;;3.58;2.20;;;;;;;;;;1788040;80;21488;-81
2022/06/07 09:29:22;;;;;;;4.03;2.45;;;;;;;;;;1787148;80;21107;-81
2022/06/07 09:31:49;;;;;;;2.83;2.10;;;;;;;;;;1788011;80;21092;-81
2022/06/07 09:34:25;;;;;;;2.83;2.20;;;;;;;;;;1787808;80;21032;-80
2022/06/07 09:36:57;;;;;;;7.95;2.52;;;;;;;;;;1787658;80;21036;-81
2022/06/07 09:39:28;;;;;;;3.72;2.40;;;;;;;;;;1786514;80;21036;-81
2022/06/07 09:41:57;;;;;;;5.05;2.25;;;;;;;;;;1787615;80;21016;-81
2022/06/07 09:44:25;;;;;;;2.52;2.00;;;;;;;;;;1787784;80;21508;-81
2022/06/07 09:46:54;;;;;;;5.83;2.60;;;;;;;;;;1787748;80;21013;-81
2022/06/07 09:49:25;;;;;;;3.50;2.30;;;;;;;;;;1785846;80;21052;-81
2022/06/07 09:51:51;;;;;;;2.60;2.00;;;;;;;;;;1787160;80;21024;-81
2022/06/07 09:54:19;;;;;;;3.42;2.50;;;;;;;;;;1759058;80;21033;-79
2022/06/07 09:56:59;;;;;;;3.90;2.40;;;;;;;;;;1787514;80;21687;-79
2022/06/07 09:59:30;;;;;;;4.12;2.62;;;;;;;;;;1787169;80;21048;-80
2022/06/07 10:01:59;;;;;;;5.08;2.35;;;;;;;;;;1790179;79;21052;-79
2022/06/07 10:04:42;;;;;;;6.30;2.50;;;;;;;;;;1790010;80;21075;-80
2022/06/07 10:07:16;;;;;;;3.65;2.35;;;;;;;;;;1787769;80;21072;-80
2022/06/07 10:10:02;;;;;;;20.43;5.55;;;;;;;;;;1786737;80;21060;-80
2022/06/07 10:12:43;;;;;;;4.70;2.47;;;;;;;;;;1787651;80;21099;-79
2022/06/07 10:15:14;;;;;;;3.33;2.40;;;;;;;;;;1787023;80;20993;-80
2022/06/07 10:17:48;;;;;;;7.15;2.60;;;;;;;;;;1787525;80;21072;-81
2022/06/07 10:20:22;;;;;;;3.17;2.30;;;;;;;;;;1784821;80;21118;-81
2022/06/07 10:22:57;;;;;;;2.70;2.10;;;;;;;;;;1778826;81;21064;-80
2022/06/07 10:25:29;;;;;;;4.12;2.40;;;;;;;;;;1778690;80;21048;-81
2022/06/07 10:27:58;;;;;;;2.58;2.25;;;;;;;;;;1778978;81;22145;-81
2022/06/07 10:30:27;;;;;;;6.20;2.30;;;;;;;;;;1778875;81;21073;-81
2022/06/07 10:33:12;;;;;;;3.52;2.20;;;;;;;;;;1779279;81;21056;-80
2022/06/07 10:35:41;;;;;;;3.10;2.17;;;;;;;;;;1778751;81;21072;-80
2022/06/07 10:38:26;;;;;;;10.82;3.37;;;;;;;;;;1778933;81;21012;-79
2022/06/07 10:41:06;;;;;;;7.97;2.77;;;;;;;;;;1777110;80;21013;-74
2022/06/07 10:43:37;;;;;;;7.15;2.80;;;;;;;;;;1767875;80;21072;-80
2022/06/07 10:46:04;;;;;;;10.10;3.87;;;;;;;;;;1746261;81;21081;-75
2022/06/07 10:48:32;;;;;;;4.45;2.20;;;;;;;;;;1768849;80;21092;-71
2022/06/07 10:51:03;;;;;;;3.80;2.17;;;;;;;;;;1770371;80;21005;-73
2022/06/07 10:53:32;;;;;;;2.72;2.25;;;;;;;;;;1777461;80;21104;-73
2022/06/07 10:56:00;;;;;;;2.90;2.30;;;;;;;;;;1763703;81;21033;-73
2022/06/07 10:58:28;;;;;;;3.45;2.37;;;;;;;;;;1763608;81;21068;-72
2022/06/07 11:00:57;;;;;;;4.25;2.30;;;;;;;;;;1771786;80;21013;-73
2022/06/07 11:03:35;;;;;;;3.33;2.55;;;;;;;;;;1774163;80;21033;-73
2022/06/07 11:11:45;;;;;;;4.80;2.47;;;;;;;;;;1771105;80;21077;-75
2022/06/07 11:14:22;;;;;;;2.47;2.27;;;;;;;;;;1771482;81;21363;-76
2022/06/07 11:17:08;;;;;;;3.75;2.60;;;;;;;;;;1766278;80;21032;-75
2022/06/07 11:19:36;;;;;;;17.50;3.17;;;;;;;;;;1777036;80;21095;-76
2022/06/07 11:22:05;;;;;;;4.55;2.75;;;;;;;;;;1771657;81;21064;-75
2022/06/07 11:24:32;;;;;;;4.10;2.98;;;;;;;;;;1757173;81;21096;-75
2022/06/07 11:27:02;;;;;;;15.70;2.87;;;;;;;;;;1741545;81;21049;-75
2022/06/07 11:29:29;;;;;;;7.67;2.85;;;;;;;;;;1777020;81;20983;-75
2022/06/07 11:31:55;;;;;;;3.87;2.30;;;;;;;;;;1776618;81;21036;-75
2022/06/07 11:34:26;;;;;;;2.90;2.52;;;;;;;;;;1776786;81;21501;-75
2022/06/07 11:36:54;;;;;;;2.60;2.30;;;;;;;;;;1777068;81;21056;-74
2022/06/07 11:39:22;;;;;;;3.37;2.42;;;;;;;;;;1777342;81;21064;-74
2022/06/07 11:41:51;;;;;;;3.12;2.45;;;;;;;;;;1777025;81;21056;-74
2022/06/07 11:44:22;;;;;;;3.62;2.70;;;;;;;;;;1776466;81;21044;-74
2022/06/07 11:46:57;;;;;;;2.80;2.40;;;;;;;;;;1777035;81;21547;-74
2022/06/07 11:49:23;;;;;;;2.92;2.52;;;;;;;;;;1776601;81;21037;-73
2022/06/07 11:51:57;;;;;;;2.95;2.60;;;;;;;;;;1776912;81;21057;-74
2022/06/07 11:54:31;;;;;;;3.37;2.45;;;;;;;;;;1777144;81;21021;-73
2022/06/07 11:57:02;;;;;;;3.30;2.30;;;;;;;;;;1772083;81;21059;-74
2022/06/07 11:59:34;;;;;;;3.95;2.60;;;;;;;;;;1762719;81;21089;-74
2022/06/07 12:02:02;;;;;;;3.83;2.60;;;;;;;;;;1752560;81;21108;-73
2022/06/07 12:04:29;;;;;;;4.22;2.52;;;;;;;;;;1772839;81;21068;-73
2022/06/07 12:06:58;;;;;;;4.30;2.40;;;;;;;;;;1774398;81;21025;-73
2022/06/07 12:09:24;;;;;;;3.65;2.55;;;;;;;;;;1746162;82;21093;-73
2022/06/07 12:11:51;;;;;;;15.93;3.37;;;;;;;;;;1745800;82;21569;-73
2022/06/07 12:14:28;;;;;;;3.00;2.65;;;;;;;;;;1747966;81;21071;-73
2022/06/07 12:16:57;;;;;;;3.75;2.72;;;;;;;;;;1776978;81;21001;-73
2022/06/07 12:19:28;;;;;;;3.75;2.60;;;;;;;;;;1777381;81;21013;-73
2022/06/07 12:21:59;;;;;;;3.10;2.40;;;;;;;;;;1755320;81;21079;-73
2022/06/07 12:24:25;;;;;;;3.58;2.50;;;;;;;;;;1755572;81;21077;-73
2022/06/07 12:26:51;;;;;;;4.03;2.80;;;;;;;;;;1765737;81;21546;-74
2022/06/07 12:29:21;;;;;;;3.77;2.90;;;;;;;;;;1748287;82;21079;-74
2022/06/07 12:31:48;;;;;;;6.67;3.10;;;;;;;;;;1772188;81;20978;-73
2022/06/07 12:34:19;;;;;;;7.90;5.92;;;;;;;;;;1765317;81;21504;-74
2022/06/07 12:36:49;;;;;;;3.50;2.90;;;;;;;;;;1767460;80;21097;-70
2022/06/07 12:39:16;;;;;;;10.72;3.17;;;;;;;;;;1769877;81;21601;-71
2022/06/07 12:41:47;;;;;;;3.47;2.62;;;;;;;;;;1741617;82;21029;-72
2022/06/07 12:44:18;;;;;;;4.75;2.80;;;;;;;;;;1735021;82;21097;-72
2022/06/07 12:46:46;;;;;;;4.58;2.42;;;;;;;;;;1738576;82;21061;-73
2022/06/07 12:49:14;;;;;;;4.22;2.50;;;;;;;;;;1741539;82;21544;-72
2022/06/07 12:51:41;;;;;;;4.75;2.60;;;;;;;;;;1719945;82;21556;-72
2022/06/07 12:54:16;;;;;;;3.72;2.17;;;;;;;;;;1741331;82;21069;-72
2022/06/07 12:56:43;;;;;;;3.70;2.50;;;;;;;;;;1739361;82;21005;-72
2022/06/07 12:59:11;;;;;;;5.47;4.78;;;;;;;;;;1737970;82;21563;-72
2022/06/07 13:01:38;;;;;;;5.85;4.53;;;;;;;;;;1736722;81;21006;-71
2022/06/07 13:04:06;;;;;;;4.42;3.20;;;;;;;;;;1741523;82;21033;-72
2022/06/07 13:06:32;;;;;;;9.70;3.92;;;;;;;;;;1713181;82;21089;-74
2022/06/07 13:09:00;;;;;;;4.15;2.35;;;;;;;;;;1706343;83;21057;-74
2022/06/07 13:11:27;;;;;;;3.00;2.30;;;;;;;;;;1729285;82;21058;-72
2022/06/07 13:13:54;;;;;;;3.58;2.50;;;;;;;;;;1737265;82;21009;-73
2022/06/07 13:16:32;;;;;;;2.90;2.60;;;;;;;;;;1737018;82;21044;-72
2022/06/07 13:19:01;;;;;;;2.83;2.22;;;;;;;;;;1737082;82;21116;-73
2022/06/07 13:21:35;;;;;;;2.98;2.40;;;;;;;;;;1744071;82;21025;-73
2022/06/07 13:24:02;;;;;;;3.55;2.40;;;;;;;;;;1761376;80;21067;-73
2022/06/07 13:26:30;;;;;;;2.30;2.10;;;;;;;;;;1765682;80;21084;-73
2022/06/07 13:29:04;;;;;;;2.65;2.42;;;;;;;;;;1745326;82;20958;-73
2022/06/07 13:31:35;;;;;;;5.08;2.72;;;;;;;;;;1775531;80;21067;-74
2022/06/07 13:34:03;;;;;;;14.75;2.72;;;;;;;;;;1757289;80;21085;-74
2022/06/07 13:36:35;;;;;;;3.52;2.47;;;;;;;;;;1753250;82;21025;-73
2022/06/07 13:39:01;;;;;;;3.47;2.40;;;;;;;;;;1756615;82;21044;-73
2022/06/07 13:41:29;;;;;;;2.70;2.30;;;;;;;;;;1755821;82;21103;-73
2022/06/07 13:44:00;;;;;;;2.80;2.40;;;;;;;;;;1756252;82;21123;-73
2022/06/07 13:46:39;;;;;;;6.17;2.20;;;;;;;;;;1756060;82;21119;-73
2022/06/07 13:54:51;;;;;;;3.02;2.30;;;;;;;;;;1777541;80;21083;-72
2022/06/07 13:57:18;;;;;;;2.92;2.27;;;;;;;;;;1782148;80;21100;-74
2022/06/07 13:59:47;;;;;;;2.17;1.98;;;;;;;;;;1779467;81;21619;-72
2022/06/07 14:02:13;;;;;;;2.70;2.10;;;;;;;;;;1758460;80;21054;-73
2022/06/07 14:04:39;;;;;;;3.75;2.12;;;;;;;;;;1754476;82;21597;-73
2022/06/07 14:07:13;;;;;;;3.98;2.40;;;;;;;;;;1755896;80;21077;-73
2022/06/07 14:09:40;;;;;;;5.03;2.67;;;;;;;;;;1719982;83;20978;-73
2022/06/07 14:12:06;;;;;;;4.53;3.45;;;;;;;;;;1769175;80;21049;-73
2022/06/07 14:14:33;;;;;;;10.32;7.00;;;;;;;;;;1786871;80;21087;-73
2022/06/07 14:17:08;;;;;;;7.85;5.97;;;;;;;;;;1786756;80;21056;-74
2022/06/07 14:19:41;;;;;;;5.53;3.80;;;;;;;;;;1776289;80;20986;-74
2022/06/07 14:22:15;;;;;;;4.00;2.58;;;;;;;;;;1742178;82;21052;-74
2022/06/07 14:24:41;;;;;;;3.77;2.40;;;;;;;;;;1714338;83;21007;-73
2022/06/07 14:27:11;;;;;;;6.20;2.50;;;;;;;;;;1716269;83;21013;-73
2022/06/07 14:29:38;;;;;;;3.15;2.17;;;;;;;;;;1725130;83;21077;-74
2022/06/07 14:32:05;;;;;;;3.10;2.17;;;;;;;;;;1725116;83;21032;-73
2022/06/07 14:34:31;;;;;;;3.42;2.40;;;;;;;;;;1723839;83;21092;-73
2022/06/07 14:36:59;;;;;;;4.50;2.27;;;;;;;;;;1724991;83;22196;-73
2022/06/07 14:39:26;;;;;;;2.05;1.80;;;;;;;;;;1725251;83;21067;-72
2022/06/07 14:41:53;;;;;;;17.92;3.55;;;;;;;;;;1698418;83;21485;-73
2022/06/07 14:44:19;;;;;;;4.87;2.33;;;;;;;;;;1725296;83;21084;-73
2022/06/07 14:46:45;;;;;;;4.72;2.42;;;;;;;;;;1725187;83;21060;-73
2022/06/07 14:49:15;;;;;;;2.80;2.15;;;;;;;;;;1725129;83;21084;-73
2022/06/07 14:51:43;;;;;;;2.67;2.20;;;;;;;;;;1726315;82;21527;-73
2022/06/07 14:54:19;;;;;;;3.77;2.00;;;;;;;;;;1711853;84;21037;-74
2022/06/07 14:56:45;;;;;;;3.05;2.20;;;;;;;;;;1742929;82;21032;-73
2022/06/07 14:59:11;;;;;;;3.55;1.95;;;;;;;;;;1734725;82;21496;-74
2022/06/07 15:01:41;;;;;;;2.37;1.98;;;;;;;;;;1694809;85;21662;-72
2022/06/07 15:04:10;;;;;;;3.17;2.87;;;;;;;;;;1737799;82;20974;-72
2022/06/07 15:06:37;;;;;;;3.87;2.22;;;;;;;;;;1743129;82;21116;-72
2022/06/07 15:09:07;;;;;;;6.90;2.75;;;;;;;;;;1742589;82;21580;-73
2022/06/07 15:11:37;;;;;;;6.10;2.65;;;;;;;;;;1724995;83;22505;-72
2022/06/07 15:14:04;;;;;;;8.80;2.65;;;;;;;;;;1725185;82;21504;-74
2022/06/07 15:16:35;;;;;;;3.55;2.40;;;;;;;;;;1737944;82;21757;-74
2022/06/07 15:19:01;;;;;;;4.17;2.70;;;;;;;;;;1730603;82;21526;-73
2022/06/07 15:21:27;;;;;;;3.17;2.08;;;;;;;;;;1720152;83;21592;-74
2022/06/07 15:23:53;;;;;;;3.45;2.20;;;;;;;;;;1756745;81;21017;-73